Virginia — WCW4062 — position and weather

sailwx.info

Track history (hours):
 
Tides and Currents Weather Stations Pressure Air Temp Water Temp Dewpoint Dewpoint Depression Visibility Wind Speed Wind Dir Waves Ship Positions

Virginia

Owner: WEEKS MARINE, INC., CRANFORD, NJ. More information available from US FCC via Universal Licensing System and Coast Guard Vessel Documentation Center.

Last reported at 2016-Aug-24 13:33 UTC. Time now 2016-Aug-24 13:45 UTC.
Position N 32°05' W 080°50'.

MMSI: 366939110.

Date/timePositionNaut miles runAvg speedWind from/ knotsBaromVisibWave heightAir tempDewpointWater temp
2016-Aug-24 13:33N 32°05' W 080°50'0 0.1
2016-Aug-24 12:33N 32°05' W 080°50'0 0.0
2016-Aug-24 11:33N 32°05' W 080°50'0 0.0
2016-Aug-24 10:33N 32°05' W 080°49'0 0.0
2016-Aug-24 09:33N 32°05' W 080°49'0 0.0
2016-Aug-24 08:33N 32°05' W 080°49'0 0.0
2016-Aug-24 07:33N 32°05' W 080°49'0 0.4
2016-Aug-24 06:33N 32°04' W 080°49'0 0.2
2016-Aug-24 04:33N 32°05' W 080°50'0 0.0
2016-Aug-24 03:33N 32°05' W 080°50'2 1.9
2016-Aug-24 02:31N 32°05' W 080°47'2 1.7
2016-Aug-24 01:33N 32°04' W 080°49'0 0.5
2016-Aug-24 00:34N 32°05' W 080°50'0 0.0
2016-Aug-23 23:33N 32°05' W 080°50'0 0.1
2016-Aug-23 22:33N 32°05' W 080°50'0 0.0
2016-Aug-23 21:33N 32°05' W 080°49'0 0.0
2016-Aug-23 20:33N 32°05' W 080°49'0 0.4
2016-Aug-23 19:33N 32°04' W 080°49'1 0.5
2016-Aug-23 18:33N 32°05' W 080°50'0 0.0
2016-Aug-23 17:33N 32°05' W 080°50'0 0.0
2016-Aug-23 16:33N 32°05' W 080°50'0 0.0
2016-Aug-23 15:33N 32°05' W 080°50'0 0.0
2016-Aug-23 14:33N 32°05' W 080°50'0 0.5
2016-Aug-23 13:33N 32°05' W 080°49'0 0.1
2016-Aug-23 12:33N 32°04' W 080°49'0 0.5
2016-Aug-23 11:33N 32°05' W 080°50'0 0.1
2016-Aug-23 10:33N 32°05' W 080°49'0 0.0
2016-Aug-23 09:33N 32°05' W 080°49'0 0.0
2016-Aug-23 08:33N 32°05' W 080°49'0 0.0
2016-Aug-23 07:34N 32°05' W 080°49'0 0.0
2016-Aug-23 06:33N 32°05' W 080°49'0 0.2
2016-Aug-23 05:33N 32°05' W 080°50'0 0.0
2016-Aug-23 04:33N 32°05' W 080°50'0 0.0
2016-Aug-23 03:33N 32°05' W 080°50'0 0.0
2016-Aug-23 02:33N 32°05' W 080°50'0 0.4
2016-Aug-23 01:33N 32°05' W 080°49'0 0.4
2016-Aug-23 00:33N 32°05' W 080°50'0 0.0
2016-Aug-22 23:33N 32°05' W 080°50'0 0.1
2016-Aug-22 22:33N 32°05' W 080°50'0 0.1
2016-Aug-22 21:33N 32°05' W 080°49'0 0.0
2016-Aug-22 20:33N 32°05' W 080°49'0 0.0
2016-Aug-22 19:34N 32°05' W 080°49'0 0.2
2016-Aug-22 18:33N 32°05' W 080°49'0 0.2
2016-Aug-22 17:33N 32°05' W 080°49'0 0.1
2016-Aug-22 16:33N 32°05' W 080°50'0 0.0
2016-Aug-22 15:33N 32°05' W 080°50'0 0.4
2016-Aug-22 14:33N 32°05' W 080°49'0 0.4
2016-Aug-22 13:34N 32°05' W 080°50'0 0.0
2016-Aug-22 12:33N 32°05' W 080°50'0 0.3
2016-Aug-22 11:33N 32°04' W 080°49'0 0.2
2016-Aug-22 10:33N 32°05' W 080°49'0 0.1
2016-Aug-22 09:33N 32°05' W 080°49'0 0.0
2016-Aug-22 08:33N 32°05' W 080°49'0 0.0
2016-Aug-22 07:32N 32°05' W 080°49'0 0.0
2016-Aug-22 06:32N 32°05' W 080°49'0 0.0
2016-Aug-22 05:33N 32°05' W 080°49'0 0.0
2016-Aug-22 04:33N 32°05' W 080°49'0 0.1
2016-Aug-22 03:33N 32°05' W 080°49'3 2.6
2016-Aug-22 02:33N 32°06' W 080°47'2 2.4
2016-Aug-22 01:33N 32°05' W 080°49'0 0.3
2016-Aug-22 00:33N 32°05' W 080°49'0 0.0
2016-Aug-21 23:34N 32°05' W 080°49'0 0.2
2016-Aug-21 22:33N 32°05' W 080°49'1 1.0
2016-Aug-21 21:33N 32°06' W 080°50'4 3.7
2016-Aug-21 20:33N 32°09' W 080°49'2 1.5
2016-Aug-21 19:29N 32°08' W 080°50'3 3.4
2016-Aug-21 18:33N 32°05' W 080°49'0 0.0
2016-Aug-21 17:33N 32°05' W 080°49'0 0.2
2016-Aug-21 16:33N 32°05' W 080°49'0 0.1
2016-Aug-21 15:34N 32°05' W 080°49'0 0.1
2016-Aug-21 14:33N 32°05' W 080°49'0 0.3
2016-Aug-21 13:33N 32°05' W 080°49'0 0.1
2016-Aug-21 12:33N 32°05' W 080°49'3 3.0
2016-Aug-21 11:33N 32°08' W 080°50'2 1.6
2016-Aug-21 10:25N 32°09' W 080°49'0 0.0
2016-Aug-21 09:33N 32°09' W 080°49'0 0.0
2016-Aug-21 07:07N 32°09' W 080°49'0 0.0
2016-Aug-21 06:26N 32°09' W 080°49'0 0.0
2016-Aug-21 03:33N 32°09' W 080°49'0 0.0
2016-Aug-21 02:33N 32°09' W 080°49'0 0.0
2016-Aug-21 01:33N 32°09' W 080°49'0 0.0
2016-Aug-21 00:33N 32°09' W 080°49'0 0.0
2016-Aug-20 23:33N 32°09' W 080°49'0 0.0
2016-Aug-20 22:33N 32°09' W 080°49'0 0.0
2016-Aug-20 21:34N 32°09' W 080°49'0 0.0
2016-Aug-20 20:33N 32°09' W 080°49'0 0.0
2016-Aug-20 19:33N 32°09' W 080°49'1 1.0
2016-Aug-20 18:21N 32°08' W 080°49'2 2.0
2016-Aug-20 17:33N 32°07' W 080°50'1 0.7
2016-Aug-20 16:33N 32°06' W 080°50'1 1.1
2016-Aug-20 15:33N 32°05' W 080°49'1 1.0
2016-Aug-20 14:33N 32°05' W 080°48'0 0.2
2016-Aug-20 13:33N 32°05' W 080°48'3 2.7
2016-Aug-20 12:33N 32°07' W 080°50'3 2.5
2016-Aug-20 11:33N 32°09' W 080°48'0 0.0
2016-Aug-20 10:33N 32°09' W 080°48'0 0.0
2016-Aug-20 09:33N 32°09' W 080°48'0 0.0
2016-Aug-20 08:33N 32°09' W 080°48'0 0.0
2016-Aug-20 07:33N 32°09' W 080°48'0 0.0
2016-Aug-20 06:15N 32°09' W 080°48'0 0.0
2016-Aug-20 05:33N 32°09' W 080°48'0 0.0
2016-Aug-20 03:33N 32°09' W 080°48'0 0.0
2016-Aug-20 02:33N 32°09' W 080°48'0 0.0
2016-Aug-20 01:33N 32°09' W 080°48'0 0.0
2016-Aug-20 00:33N 32°09' W 080°48'0 0.0
2016-Aug-19 23:33N 32°09' W 080°48'0 0.0
2016-Aug-19 22:33N 32°09' W 080°48'0 0.0
2016-Aug-19 21:33N 32°09' W 080°48'3 3.2
2016-Aug-19 20:33N 32°07' W 080°50'3 2.7
2016-Aug-19 19:33N 32°04' W 080°50'3 3.2
2016-Aug-19 18:33N 32°02' W 080°47'5 4.5
2016-Aug-19 17:33N 32°04' W 080°42'5 4.7
2016-Aug-19 16:33N 32°08' W 080°39'6 1.5
2016-Aug-19 12:31N 32°14' W 080°38'4 4.2
2016-Aug-19 11:33N 32°16' W 080°42'2 2.1
2016-Aug-19 10:33N 32°16' W 080°44'0 0.0
2016-Aug-19 09:33N 32°16' W 080°44'0 0.0
2016-Aug-19 08:33N 32°16' W 080°44'9 1.4
2016-Aug-19 02:24N 32°09' W 080°51'5 6.2
2016-Aug-19 01:33N 32°05' W 080°55'6 6.0
2016-Aug-19 00:33N 32°05' W 081°02'3 3.3
2016-Aug-18 23:33N 32°05' W 081°06'0 0.0
2016-Aug-18 22:33N 32°05' W 081°06'0 0.0
2016-Aug-18 21:33N 32°05' W 081°06'6 6.4
2016-Aug-18 20:34N 32°04' W 080°58'4 4.4
2016-Aug-18 19:33N 32°07' W 080°54'4 4.4
2016-Aug-18 18:33N 32°09' W 080°49'1 0.5
2016-Aug-18 17:18N 32°09' W 080°49'0 0.2
2016-Aug-18 16:33N 32°09' W 080°49'0 0.0
2016-Aug-18 15:34N 32°09' W 080°49'2 1.6
2016-Aug-18 14:05N 32°07' W 080°50'3 4.8
2016-Aug-18 13:33N 32°05' W 080°48'0 0.4
2016-Aug-18 12:32N 32°05' W 080°48'2 1.7
2016-Aug-18 11:33N 32°06' W 080°50'3 3.4
2016-Aug-18 10:33N 32°09' W 080°49'0 0.0
2016-Aug-17 21:13N 32°09' W 080°49'0 0.1
2016-Aug-17 20:33N 32°09' W 080°49'0 0.0
2016-Aug-17 19:33N 32°09' W 080°49'0 0.0
2016-Aug-17 18:33N 32°09' W 080°49'0 0.1
2016-Aug-17 17:33N 32°09' W 080°49'0 0.1
2016-Aug-17 16:25N 32°09' W 080°49'0 0.1
2016-Aug-17 15:33N 32°09' W 080°49'0 0.3
2016-Aug-17 14:31N 32°09' W 080°48'3 3.6
2016-Aug-17 13:33N 32°06' W 080°50'0 0.3
2016-Aug-17 12:33N 32°06' W 080°50'0 0.1
2016-Aug-17 11:33N 32°06' W 080°50'3 3.3
2016-Aug-17 10:33N 32°09' W 080°48'0 0.3
2016-Aug-17 09:30N 32°09' W 080°49'0 0.0
2016-Aug-17 08:33N 32°09' W 080°49'0 0.0
2016-Aug-17 07:33N 32°09' W 080°49'0 0.0
2016-Aug-17 06:33N 32°09' W 080°49'0 0.0
2016-Aug-17 05:34N 32°09' W 080°49'0 0.0
2016-Aug-17 04:33N 32°09' W 080°49'4 3.6
2016-Aug-17 03:33N 32°08' W 080°53'4 4.2
2016-Aug-17 02:33N 32°05' W 080°56'5 5.1
2016-Aug-17 01:33N 32°05' W 081°02'2 2.4
2016-Aug-17 00:34N 32°05' W 081°05'1 0.6
2016-Aug-16 23:33N 32°05' W 081°06'0 0.0
2016-Aug-16 22:33N 32°05' W 081°06'0 0.0
2016-Aug-16 21:33N 32°05' W 081°06'5 5.2
2016-Aug-16 20:33N 32°06' W 080°60'5 5.0
2016-Aug-16 19:33N 32°06' W 080°54'5 5.2
2016-Aug-16 18:33N 32°09' W 080°49'3 3.5
2016-Aug-16 17:33N 32°06' W 080°50'3 2.6
2016-Aug-16 16:33N 32°04' W 080°48'1 0.9
2016-Aug-16 15:33N 32°05' W 080°48'0 0.4
2016-Aug-16 14:33N 32°05' W 080°47'1 0.9
2016-Aug-16 13:33N 32°04' W 080°47'3 3.0
2016-Aug-16 12:33N 32°06' W 080°50'0 0.4
2016-Aug-16 11:33N 32°06' W 080°50'4 3.5
2016-Aug-16 10:33N 32°09' W 080°49'0 0.2
2016-Aug-16 09:33N 32°09' W 080°49'0 0.0
2016-Aug-16 08:33N 32°09' W 080°49'0 0.0
2016-Aug-16 07:33N 32°09' W 080°49'1 0.2
2016-Aug-16 01:30N 32°09' W 080°50'5 5.7
2016-Aug-16 00:33N 32°05' W 080°55'6 6.5
2016-Aug-15 23:33N 32°05' W 081°02'3 2.9
2016-Aug-15 22:33N 32°05' W 081°06'0 0.0
2016-Aug-15 21:33N 32°05' W 081°06'0 0.0
2016-Aug-15 20:33N 32°05' W 081°06'1 0.7
2016-Aug-15 19:33N 32°05' W 081°05'6 6.3
2016-Aug-15 18:33N 32°05' W 080°57'4 4.5
2016-Aug-15 17:33N 32°08' W 080°54'4 4.0
2016-Aug-15 16:33N 32°09' W 080°49'5 4.7
2016-Aug-15 15:33N 32°04' W 080°49'2 1.9
2016-Aug-15 14:34N 32°05' W 080°47'0 0.4
2016-Aug-15 13:33N 32°05' W 080°47'2 2.1
2016-Aug-15 12:34N 32°05' W 080°49'1 0.7
2016-Aug-15 11:33N 32°06' W 080°50'0 0.1
2016-Aug-15 10:33N 32°06' W 080°50'4 3.9
2016-Aug-15 09:33N 32°09' W 080°48'0 0.1
2016-Aug-15 06:10N 32°09' W 080°49'7 4.3
2016-Aug-15 04:33N 32°05' W 080°56'4 4.2
2016-Aug-15 03:33N 32°06' W 081°01'4 4.3
2016-Aug-15 02:33N 32°05' W 081°05'0 0.3
2016-Aug-15 01:33N 32°05' W 081°06'0 0.0
2016-Aug-15 00:33N 32°05' W 081°06'0 0.0
2016-Aug-14 23:33N 32°05' W 081°06'1 1.4
2016-Aug-14 22:33N 32°05' W 081°04'7 6.7
2016-Aug-14 21:33N 32°05' W 080°56'6 5.9
2016-Aug-14 20:33N 32°09' W 080°51'2 2.3
2016-Aug-14 19:33N 32°07' W 080°50'3 3.1
2016-Aug-14 18:33N 32°05' W 080°47'1 0.8
2016-Aug-14 17:33N 32°06' W 080°46'2 2.4
2016-Aug-14 16:33N 32°04' W 080°49'1 1.5
2016-Aug-14 15:33N 32°05' W 080°50'0 0.5
2016-Aug-14 14:33N 32°06' W 080°50'3 3.5
2016-Aug-14 13:33N 32°09' W 080°49'0 0.1
2016-Aug-14 12:33N 32°09' W 080°49'  
Track history (hours):
 
Tides and Currents Weather Stations Pressure Air Temp Water Temp Dewpoint Dewpoint Depression Visibility Wind Speed Wind Dir Waves Ship Positions

Virginia

Owner: WEEKS MARINE, INC., CRANFORD, NJ. More information available from US FCC via Universal Licensing System and Coast Guard Vessel Documentation Center.

Last reported at 2016-Aug-24 13:33 UTC. Time now 2016-Aug-24 13:45 UTC.
Position N 32°05' W 080°50'.

MMSI: 366939110.

Date/timePositionNaut miles runAvg speedWind from/ knotsBaromVisibWave heightAir tempDewpointWater temp
2016-Aug-24 13:33N 32°05' W 080°50'0 0.1
2016-Aug-24 12:33N 32°05' W 080°50'0 0.0
2016-Aug-24 11:33N 32°05' W 080°50'0 0.0
2016-Aug-24 10:33N 32°05' W 080°49'0 0.0
2016-Aug-24 09:33N 32°05' W 080°49'0 0.0
2016-Aug-24 08:33N 32°05' W 080°49'0 0.0
2016-Aug-24 07:33N 32°05' W 080°49'0 0.4
2016-Aug-24 06:33N 32°04' W 080°49'0 0.2
2016-Aug-24 04:33N 32°05' W 080°50'0 0.0
2016-Aug-24 03:33N 32°05' W 080°50'2 1.9
2016-Aug-24 02:31N 32°05' W 080°47'2 1.7
2016-Aug-24 01:33N 32°04' W 080°49'0 0.5
2016-Aug-24 00:34N 32°05' W 080°50'0 0.0
2016-Aug-23 23:33N 32°05' W 080°50'0 0.1
2016-Aug-23 22:33N 32°05' W 080°50'0 0.0
2016-Aug-23 21:33N 32°05' W 080°49'0 0.0
2016-Aug-23 20:33N 32°05' W 080°49'0 0.4
2016-Aug-23 19:33N 32°04' W 080°49'1 0.5
2016-Aug-23 18:33N 32°05' W 080°50'0 0.0
2016-Aug-23 17:33N 32°05' W 080°50'0 0.0
2016-Aug-23 16:33N 32°05' W 080°50'0 0.0
2016-Aug-23 15:33N 32°05' W 080°50'0 0.0
2016-Aug-23 14:33N 32°05' W 080°50'0 0.5
2016-Aug-23 13:33N 32°05' W 080°49'0 0.1
2016-Aug-23 12:33N 32°04' W 080°49'0 0.5
2016-Aug-23 11:33N 32°05' W 080°50'0 0.1
2016-Aug-23 10:33N 32°05' W 080°49'0 0.0
2016-Aug-23 09:33N 32°05' W 080°49'0 0.0
2016-Aug-23 08:33N 32°05' W 080°49'0 0.0
2016-Aug-23 07:34N 32°05' W 080°49'0 0.0
2016-Aug-23 06:33N 32°05' W 080°49'0 0.2
2016-Aug-23 05:33N 32°05' W 080°50'0 0.0
2016-Aug-23 04:33N 32°05' W 080°50'0 0.0
2016-Aug-23 03:33N 32°05' W 080°50'0 0.0
2016-Aug-23 02:33N 32°05' W 080°50'0 0.4
2016-Aug-23 01:33N 32°05' W 080°49'0 0.4
2016-Aug-23 00:33N 32°05' W 080°50'0 0.0
2016-Aug-22 23:33N 32°05' W 080°50'0 0.1
2016-Aug-22 22:33N 32°05' W 080°50'0 0.1
2016-Aug-22 21:33N 32°05' W 080°49'0 0.0
2016-Aug-22 20:33N 32°05' W 080°49'0 0.0
2016-Aug-22 19:34N 32°05' W 080°49'0 0.2
2016-Aug-22 18:33N 32°05' W 080°49'0 0.2
2016-Aug-22 17:33N 32°05' W 080°49'0 0.1
2016-Aug-22 16:33N 32°05' W 080°50'0 0.0
2016-Aug-22 15:33N 32°05' W 080°50'0 0.4
2016-Aug-22 14:33N 32°05' W 080°49'0 0.4
2016-Aug-22 13:34N 32°05' W 080°50'0 0.0
2016-Aug-22 12:33N 32°05' W 080°50'0 0.3
2016-Aug-22 11:33N 32°04' W 080°49'0 0.2
2016-Aug-22 10:33N 32°05' W 080°49'0 0.1
2016-Aug-22 09:33N 32°05' W 080°49'0 0.0
2016-Aug-22 08:33N 32°05' W 080°49'0 0.0
2016-Aug-22 07:32N 32°05' W 080°49'0 0.0
2016-Aug-22 06:32N 32°05' W 080°49'0 0.0
2016-Aug-22 05:33N 32°05' W 080°49'0 0.0
2016-Aug-22 04:33N 32°05' W 080°49'0 0.1
2016-Aug-22 03:33N 32°05' W 080°49'3 2.6
2016-Aug-22 02:33N 32°06' W 080°47'2 2.4
2016-Aug-22 01:33N 32°05' W 080°49'0 0.3
2016-Aug-22 00:33N 32°05' W 080°49'0 0.0
2016-Aug-21 23:34N 32°05' W 080°49'0 0.2
2016-Aug-21 22:33N 32°05' W 080°49'1 1.0
2016-Aug-21 21:33N 32°06' W 080°50'4 3.7
2016-Aug-21 20:33N 32°09' W 080°49'2 1.5
2016-Aug-21 19:29N 32°08' W 080°50'3 3.4
2016-Aug-21 18:33N 32°05' W 080°49'0 0.0
2016-Aug-21 17:33N 32°05' W 080°49'0 0.2
2016-Aug-21 16:33N 32°05' W 080°49'0 0.1
2016-Aug-21 15:34N 32°05' W 080°49'0 0.1
2016-Aug-21 14:33N 32°05' W 080°49'0 0.3
2016-Aug-21 13:33N 32°05' W 080°49'0 0.1
2016-Aug-21 12:33N 32°05' W 080°49'3 3.0
2016-Aug-21 11:33N 32°08' W 080°50'2 1.6
2016-Aug-21 10:25N 32°09' W 080°49'0 0.0
2016-Aug-21 09:33N 32°09' W 080°49'0 0.0
2016-Aug-21 07:07N 32°09' W 080°49'0 0.0
2016-Aug-21 06:26N 32°09' W 080°49'0 0.0
2016-Aug-21 03:33N 32°09' W 080°49'0 0.0
2016-Aug-21 02:33N 32°09' W 080°49'0 0.0
2016-Aug-21 01:33N 32°09' W 080°49'0 0.0
2016-Aug-21 00:33N 32°09' W 080°49'0 0.0
2016-Aug-20 23:33N 32°09' W 080°49'0 0.0
2016-Aug-20 22:33N 32°09' W 080°49'0 0.0
2016-Aug-20 21:34N 32°09' W 080°49'0 0.0
2016-Aug-20 20:33N 32°09' W 080°49'0 0.0
2016-Aug-20 19:33N 32°09' W 080°49'1 1.0
2016-Aug-20 18:21N 32°08' W 080°49'2 2.0
2016-Aug-20 17:33N 32°07' W 080°50'1 0.7
2016-Aug-20 16:33N 32°06' W 080°50'1 1.1
2016-Aug-20 15:33N 32°05' W 080°49'1 1.0
2016-Aug-20 14:33N 32°05' W 080°48'0 0.2
2016-Aug-20 13:33N 32°05' W 080°48'3 2.7
2016-Aug-20 12:33N 32°07' W 080°50'3 2.5
2016-Aug-20 11:33N 32°09' W 080°48'0 0.0
2016-Aug-20 10:33N 32°09' W 080°48'0 0.0
2016-Aug-20 09:33N 32°09' W 080°48'0 0.0
2016-Aug-20 08:33N 32°09' W 080°48'0 0.0
2016-Aug-20 07:33N 32°09' W 080°48'0 0.0
2016-Aug-20 06:15N 32°09' W 080°48'0 0.0
2016-Aug-20 05:33N 32°09' W 080°48'0 0.0
2016-Aug-20 03:33N 32°09' W 080°48'0 0.0
2016-Aug-20 02:33N 32°09' W 080°48'0 0.0
2016-Aug-20 01:33N 32°09' W 080°48'0 0.0
2016-Aug-20 00:33N 32°09' W 080°48'0 0.0
2016-Aug-19 23:33N 32°09' W 080°48'0 0.0
2016-Aug-19 22:33N 32°09' W 080°48'0 0.0
2016-Aug-19 21:33N 32°09' W 080°48'3 3.2
2016-Aug-19 20:33N 32°07' W 080°50'3 2.7
2016-Aug-19 19:33N 32°04' W 080°50'3 3.2
2016-Aug-19 18:33N 32°02' W 080°47'5 4.5
2016-Aug-19 17:33N 32°04' W 080°42'5 4.7
2016-Aug-19 16:33N 32°08' W 080°39'6 1.5
2016-Aug-19 12:31N 32°14' W 080°38'4 4.2
2016-Aug-19 11:33N 32°16' W 080°42'2 2.1
2016-Aug-19 10:33N 32°16' W 080°44'0 0.0
2016-Aug-19 09:33N 32°16' W 080°44'0 0.0
2016-Aug-19 08:33N 32°16' W 080°44'9 1.4
2016-Aug-19 02:24N 32°09' W 080°51'5 6.2
2016-Aug-19 01:33N 32°05' W 080°55'6 6.0
2016-Aug-19 00:33N 32°05' W 081°02'3 3.3
2016-Aug-18 23:33N 32°05' W 081°06'0 0.0
2016-Aug-18 22:33N 32°05' W 081°06'0 0.0
2016-Aug-18 21:33N 32°05' W 081°06'6 6.4
2016-Aug-18 20:34N 32°04' W 080°58'4 4.4
2016-Aug-18 19:33N 32°07' W 080°54'4 4.4
2016-Aug-18 18:33N 32°09' W 080°49'1 0.5
2016-Aug-18 17:18N 32°09' W 080°49'0 0.2
2016-Aug-18 16:33N 32°09' W 080°49'0 0.0
2016-Aug-18 15:34N 32°09' W 080°49'2 1.6
2016-Aug-18 14:05N 32°07' W 080°50'3 4.8
2016-Aug-18 13:33N 32°05' W 080°48'0 0.4
2016-Aug-18 12:32N 32°05' W 080°48'2 1.7
2016-Aug-18 11:33N 32°06' W 080°50'3 3.4
2016-Aug-18 10:33N 32°09' W 080°49'0 0.0
2016-Aug-17 21:13N 32°09' W 080°49'0 0.1
2016-Aug-17 20:33N 32°09' W 080°49'0 0.0
2016-Aug-17 19:33N 32°09' W 080°49'0 0.0
2016-Aug-17 18:33N 32°09' W 080°49'0 0.1
2016-Aug-17 17:33N 32°09' W 080°49'0 0.1
2016-Aug-17 16:25N 32°09' W 080°49'0 0.1
2016-Aug-17 15:33N 32°09' W 080°49'0 0.3
2016-Aug-17 14:31N 32°09' W 080°48'3 3.6
2016-Aug-17 13:33N 32°06' W 080°50'0 0.3
2016-Aug-17 12:33N 32°06' W 080°50'0 0.1
2016-Aug-17 11:33N 32°06' W 080°50'3 3.3
2016-Aug-17 10:33N 32°09' W 080°48'0 0.3
2016-Aug-17 09:30N 32°09' W 080°49'0 0.0
2016-Aug-17 08:33N 32°09' W 080°49'0 0.0
2016-Aug-17 07:33N 32°09' W 080°49'0 0.0
2016-Aug-17 06:33N 32°09' W 080°49'0 0.0
2016-Aug-17 05:34N 32°09' W 080°49'0 0.0
2016-Aug-17 04:33N 32°09' W 080°49'4 3.6
2016-Aug-17 03:33N 32°08' W 080°53'4 4.2
2016-Aug-17 02:33N 32°05' W 080°56'5 5.1
2016-Aug-17 01:33N 32°05' W 081°02'2 2.4
2016-Aug-17 00:34N 32°05' W 081°05'1 0.6
2016-Aug-16 23:33N 32°05' W 081°06'0 0.0
2016-Aug-16 22:33N 32°05' W 081°06'0 0.0
2016-Aug-16 21:33N 32°05' W 081°06'5 5.2
2016-Aug-16 20:33N 32°06' W 080°60'5 5.0
2016-Aug-16 19:33N 32°06' W 080°54'5 5.2
2016-Aug-16 18:33N 32°09' W 080°49'3 3.5
2016-Aug-16 17:33N 32°06' W 080°50'3 2.6
2016-Aug-16 16:33N 32°04' W 080°48'1 0.9
2016-Aug-16 15:33N 32°05' W 080°48'0 0.4
2016-Aug-16 14:33N 32°05' W 080°47'1 0.9
2016-Aug-16 13:33N 32°04' W 080°47'3 3.0
2016-Aug-16 12:33N 32°06' W 080°50'0 0.4
2016-Aug-16 11:33N 32°06' W 080°50'4 3.5
2016-Aug-16 10:33N 32°09' W 080°49'0 0.2
2016-Aug-16 09:33N 32°09' W 080°49'0 0.0
2016-Aug-16 08:33N 32°09' W 080°49'0 0.0
2016-Aug-16 07:33N 32°09' W 080°49'1 0.2
2016-Aug-16 01:30N 32°09' W 080°50'5 5.7
2016-Aug-16 00:33N 32°05' W 080°55'6 6.5
2016-Aug-15 23:33N 32°05' W 081°02'3 2.9
2016-Aug-15 22:33N 32°05' W 081°06'0 0.0
2016-Aug-15 21:33N 32°05' W 081°06'0 0.0
2016-Aug-15 20:33N 32°05' W 081°06'1 0.7
2016-Aug-15 19:33N 32°05' W 081°05'6 6.3
2016-Aug-15 18:33N 32°05' W 080°57'4 4.5
2016-Aug-15 17:33N 32°08' W 080°54'4 4.0
2016-Aug-15 16:33N 32°09' W 080°49'5 4.7
2016-Aug-15 15:33N 32°04' W 080°49'2 1.9
2016-Aug-15 14:34N 32°05' W 080°47'0 0.4
2016-Aug-15 13:33N 32°05' W 080°47'2 2.1
2016-Aug-15 12:34N 32°05' W 080°49'1 0.7
2016-Aug-15 11:33N 32°06' W 080°50'0 0.1
2016-Aug-15 10:33N 32°06' W 080°50'4 3.9
2016-Aug-15 09:33N 32°09' W 080°48'0 0.1
2016-Aug-15 06:10N 32°09' W 080°49'7 4.3
2016-Aug-15 04:33N 32°05' W 080°56'4 4.2
2016-Aug-15 03:33N 32°06' W 081°01'4 4.3
2016-Aug-15 02:33N 32°05' W 081°05'0 0.3
2016-Aug-15 01:33N 32°05' W 081°06'0 0.0
2016-Aug-15 00:33N 32°05' W 081°06'0 0.0
2016-Aug-14 23:33N 32°05' W 081°06'1 1.4
2016-Aug-14 22:33N 32°05' W 081°04'7 6.7
2016-Aug-14 21:33N 32°05' W 080°56'6 5.9
2016-Aug-14 20:33N 32°09' W 080°51'2 2.3
2016-Aug-14 19:33N 32°07' W 080°50'3 3.1
2016-Aug-14 18:33N 32°05' W 080°47'1 0.8
2016-Aug-14 17:33N 32°06' W 080°46'2 2.4
2016-Aug-14 16:33N 32°04' W 080°49'1 1.5
2016-Aug-14 15:33N 32°05' W 080°50'0 0.5
2016-Aug-14 14:33N 32°06' W 080°50'3 3.5
2016-Aug-14 13:33N 32°09' W 080°49'0 0.1
2016-Aug-14 12:33N 32°09' W 080°49'  

Dump ship's entire track history